Time;durP1;ratioP1;P1;durP2;ratioP2;P2;SDS_P1;SDS_P2;PMS_P1;PMS_P2;Temp;Humidity;BMP_temperature;BMP_pressure;BME280_temperature;BME280_humidity;BME280_pressure;Samples;Min_cycle;Max_cycle;Signal;HPM_P1;HPM_P2
2023/03/06 18:37:52;;;;;;;;;;;;;;;4.09;65.93;98721.84;141196;1292;635367;-86
2023/03/06 18:41:16;;;;;;;42.20;27.90;;;;;;;4.25;65.64;98724.79;144454;1267;95127;-88
2023/03/06 18:44:39;;;;;;;41.30;27.20;;;;;;;4.34;65.66;98724.98;145203;1260;94807;-84
2023/03/06 18:48:03;;;;;;;33.30;23.70;;;;;;;4.52;65.67;98720.38;145189;1259;94355;-85
2023/03/06 18:51:25;;;;;;;34.40;19.10;;;;;;;4.76;65.26;98719.31;145502;1257;238762;-89
2023/03/06 18:54:49;;;;;;;22.40;18.00;;;;;;;5.00;65.29;98722.02;145341;1257;95068;-86
2023/03/06 18:58:13;;;;;;;25.50;17.60;;;;;;;5.25;64.88;98711.46;145650;1254;95173;-84
2023/03/06 19:01:36;;;;;;;21.60;15.80;;;;;;;5.48;64.51;98709.45;145295;1255;94338;-89
2023/03/06 19:05:05;;;;;;;20.60;15.90;;;;;;;5.70;64.04;98708.61;145788;1254;94277;-90
2023/03/06 19:08:27;;;;;;;22.90;15.30;;;;;;;5.90;63.64;98706.88;145756;1260;94235;-89
2023/03/06 19:11:49;;;;;;;20.00;15.10;;;;;;;6.08;63.26;98701.48;145649;1254;96091;-87
2023/03/06 19:15:15;;;;;;;20.80;14.70;;;;;;;6.24;62.61;98706.00;145164;1254;96337;-84
2023/03/06 19:18:37;;;;;;;23.80;15.30;;;;;;;6.38;62.18;98704.64;145209;1260;95219;-87
2023/03/06 19:21:59;;;;;;;19.20;14.40;;;;;;;6.50;61.85;98697.71;145387;1254;95252;-89
2023/03/06 19:25:21;;;;;;;18.50;13.70;;;;;;;6.60;61.30;98696.48;145175;1254;95236;-85
2023/03/06 19:28:44;;;;;;;19.40;14.10;;;;;;;6.70;61.06;98699.52;145194;1260;95195;-87
2023/03/06 19:32:06;;;;;;;18.40;14.00;;;;;;;6.78;60.83;98702.89;145738;1254;95290;-89
2023/03/06 19:35:34;;;;;;;17.70;14.20;;;;;;;6.85;60.28;98700.90;144961;1260;109003;-85
2023/03/06 19:38:57;;;;;;;24.10;14.60;;;;;;;6.90;59.99;98701.49;145006;1260;108097;-87
2023/03/06 19:42:19;;;;;;;25.90;16.80;;;;;;;6.99;60.98;98690.18;145171;1257;108097;-86
2023/03/06 19:45:43;;;;;;;21.40;17.00;;;;;;;7.36;63.79;98697.63;145202;1258;96142;-85
2023/03/06 19:49:14;;;;;;;20.00;16.20;;;;;;;7.56;62.76;98698.52;145065;1259;109016;-83
2023/03/06 19:52:37;;;;;;;21.10;15.80;;;;;;;7.64;62.32;98694.77;145589;1258;109173;-86
2023/03/06 19:56:08;;;;;;;22.80;15.80;;;;;;;7.68;62.12;98693.08;146587;1254;95132;-82
2023/03/06 19:59:30;;;;;;;19.80;15.60;;;;;;;7.72;61.79;98692.93;144650;1257;109871;-86
2023/03/06 20:02:52;;;;;;;15.40;13.80;;;;;;;7.75;61.62;98696.07;144574;1260;95342;-83
2023/03/06 20:06:17;;;;;;;15.80;14.00;;;;;;;7.76;61.41;98703.34;144744;1262;95214;-82
2023/03/06 20:09:39;;;;;;;15.60;13.00;;;;;;;7.78;61.16;98701.28;144683;1265;102485;-85
2023/03/06 20:13:01;;;;;;;16.30;13.50;;;;;;;7.81;60.96;98703.02;144425;1263;95711;-83
2023/03/06 20:16:23;;;;;;;14.60;12.80;;;;;;;7.83;60.67;98702.17;144570;1263;95303;-80
2023/03/06 20:19:52;;;;;;;;;;;;;;;7.83;60.43;98701.49;144726;1265;108335;-84
2023/03/06 20:23:14;;;;;;;13.00;11.60;;;;;;;7.83;60.02;98701.31;144606;1268;95221;-82
2023/03/06 20:26:38;;;;;;;15.80;12.40;;;;;;;7.83;59.94;98702.00;144637;1264;96518;-83
2023/03/06 20:30:00;;;;;;;14.80;11.60;;;;;;;7.83;59.69;98700.29;144834;1265;96115;-86
2023/03/06 20:33:22;;;;;;;15.60;12.80;;;;;;;7.83;59.46;98695.95;144949;1264;96129;-81
2023/03/06 20:36:44;;;;;;;15.30;11.80;;;;;;;7.82;59.18;98698.72;144384;1265;95216;-80
2023/03/06 20:40:06;;;;;;;14.20;11.80;;;;;;;7.82;58.95;98700.45;144421;1265;96145;-81
2023/03/06 20:43:28;;;;;;;14.20;11.70;;;;;;;7.81;58.74;98703.73;144586;1265;95668;-79
2023/03/06 20:46:54;;;;;;;12.30;10.70;;;;;;;7.82;58.49;98700.79;144421;1265;96030;-82
2023/03/06 20:50:16;;;;;;;12.00;10.80;;;;;;;7.81;58.29;98698.54;144482;1265;96016;-81
2023/03/06 20:53:38;;;;;;;14.00;11.10;;;;;;;7.81;58.06;98701.65;144587;1265;95217;-78
2023/03/06 20:57:00;;;;;;;13.10;10.60;;;;;;;7.81;57.87;98699.92;144572;1262;96165;-81
2023/03/06 21:00:22;;;;;;;11.40;10.20;;;;;;;7.81;57.70;98698.54;144332;1263;108071;-78
2023/03/06 21:03:59;;;;;;;11.30;9.40;;;;;;;7.81;57.54;98704.77;144034;1267;108437;-79
2023/03/06 21:07:23;;;;;;;10.30;9.30;;;;;;;7.80;57.29;98699.91;144470;1263;108004;-81
2023/03/06 21:10:46;;;;;;;10.40;9.10;;;;;;;7.79;57.21;98694.88;144966;1262;95316;-81
2023/03/06 21:14:08;;;;;;;11.10;9.50;;;;;;;7.78;57.06;98688.14;146910;1262;95259;-79
2023/03/06 21:17:30;;;;;;;9.90;8.80;;;;;;;7.79;56.93;98691.25;145468;1259;102009;-82
2023/03/06 21:21:01;;;;;;;9.80;8.70;;;;;;;7.78;56.69;98692.64;144653;1259;95712;-88
2023/03/06 21:24:23;;;;;;;10.10;9.00;;;;;;;7.78;56.69;98695.40;145441;1260;102415;-87
2023/03/06 21:28:00;;;;;;;9.80;8.60;;;;;;;7.77;56.46;98697.48;144730;1262;102618;-89
2023/03/06 21:31:22;;;;;;;8.60;7.70;;;;;;;7.77;56.34;98691.77;144507;1263;103546;-77
2023/03/06 21:34:43;;;;;;;11.60;8.00;;;;;;;7.76;56.38;98686.39;144547;1262;95285;-82
2023/03/06 21:38:06;;;;;;;9.60;8.10;;;;;;;7.76;56.13;98687.95;144489;1263;96159;-78
2023/03/06 21:41:29;;;;;;;10.70;9.10;;;;;;;7.76;56.11;98689.84;144516;1262;107606;-83
2023/03/06 21:44:51;;;;;;;9.10;8.20;;;;;;;7.75;56.14;98687.42;144912;1262;95259;-85
2023/03/06 21:48:13;;;;;;;12.10;8.60;;;;;;;7.74;55.75;98691.22;144829;1259;95383;-77
2023/03/06 21:51:35;;;;;;;10.50;8.90;;;;;;;7.74;55.79;98688.45;144781;1262;95202;-77
2023/03/06 21:54:57;;;;;;;9.20;7.50;;;;;;;7.73;55.67;98691.23;144406;1259;95294;-75
2023/03/06 21:58:20;;;;;;;9.50;8.70;;;;;;;7.72;55.61;98693.09;144724;1262;95699;-89
2023/03/06 22:01:42;;;;;;;8.90;8.10;;;;;;;7.72;55.60;98695.17;144530;1260;95202;-80
2023/03/06 22:05:05;;;;;;;8.90;7.80;;;;;;;7.71;55.44;98697.07;144711;1260;96194;-76
2023/03/06 22:08:27;;;;;;;9.40;8.30;;;;;;;7.70;55.37;98699.33;144722;1262;95359;-76
2023/03/06 22:11:49;;;;;;;10.40;9.00;;;;;;;7.68;55.26;98698.43;144644;1259;95653;-77
2023/03/06 22:15:10;;;;;;;12.60;9.30;;;;;;;7.68;55.35;98705.35;144567;1262;108345;-88
2023/03/06 22:18:33;;;;;;;9.40;8.40;;;;;;;7.67;55.20;98706.04;144856;1260;95230;-79
2023/03/06 22:21:55;;;;;;;9.90;8.90;;;;;;;7.67;55.15;98707.08;144805;1262;95312;-81
2023/03/06 22:25:17;;;;;;;9.50;8.60;;;;;;;7.66;55.04;98707.07;144770;1259;102770;-76
2023/03/06 22:28:40;;;;;;;10.60;8.80;;;;;;;7.66;54.94;98710.54;144451;1259;95261;-77
2023/03/06 22:32:02;;;;;;;14.00;9.00;;;;;;;7.65;55.01;98706.88;144813;1260;95292;-75
2023/03/06 22:35:24;;;;;;;9.80;8.70;;;;;;;7.65;54.98;98704.63;144807;1262;95321;-77
2023/03/06 22:38:52;;;;;;;10.60;9.50;;;;;;;7.65;54.85;98711.02;144678;1262;108265;-76
2023/03/06 22:42:14;;;;;;;12.20;9.70;;;;;;;7.63;54.85;98709.63;144215;1262;106069;-76
2023/03/06 22:45:36;;;;;;;9.60;8.60;;;;;;;7.63;54.75;98711.69;144696;1262;95273;-76
2023/03/06 22:48:59;;;;;;;9.90;8.90;;;;;;;7.62;54.74;98716.01;144610;1262;95212;-79
2023/03/06 22:52:21;;;;;;;11.70;9.90;;;;;;;7.61;54.56;98721.55;144650;1262;95266;-79
2023/03/06 22:55:43;;;;;;;11.10;9.70;;;;;;;7.61;54.66;98726.55;144860;1262;95291;-80
2023/03/06 22:59:05;;;;;;;10.60;9.40;;;;;;;7.60;54.63;98728.63;144693;1262;95193;-76
2023/03/06 23:02:32;;;;;;;12.20;9.40;;;;;;;7.60;54.52;98730.18;144876;1259;96115;-83
2023/03/06 23:05:53;;;;;;;11.20;10.00;;;;;;;7.58;54.46;98734.14;144684;1262;95245;-79
2023/03/06 23:09:20;;;;;;;12.10;10.90;;;;;;;7.57;54.49;98733.80;144719;1262;95281;-82
2023/03/06 23:13:00;;;;;;;12.00;9.50;;;;;;;7.56;54.58;98730.84;144701;1262;95294;-77
2023/03/06 23:16:41;;;;;;;14.50;10.90;;;;;;;7.55;54.38;98738.44;145012;1262;95223;-78
2023/03/06 23:20:21;;;;;;;12.00;10.70;;;;;;;7.52;54.28;98733.91;144672;1262;95256;-83
2023/03/06 23:24:02;;;;;;;12.40;10.40;;;;;;;7.49;54.13;98741.84;144771;1262;95235;-75
2023/03/06 23:27:24;;;;;;;12.00;10.70;;;;;;;7.46;54.22;98743.17;144736;1262;95917;-77
2023/03/06 23:30:45;;;;;;;14.60;11.00;;;;;;;7.42;54.14;98745.05;144794;1262;95278;-78
2023/03/06 23:34:10;;;;;;;12.30;10.90;;;;;;;7.40;54.01;98752.45;144677;1262;109415;-77
2023/03/06 23:37:32;;;;;;;14.20;11.00;;;;;;;7.38;54.02;98753.98;144848;1262;109201;-77
2023/03/06 23:40:54;;;;;;;14.10;11.20;;;;;;;7.35;54.04;98760.36;144642;1262;95234;-77
2023/03/06 23:44:16;;;;;;;12.00;10.80;;;;;;;7.32;53.91;98761.02;144601;1273;95260;-75
2023/03/06 23:47:38;;;;;;;19.10;13.70;;;;;;;7.30;53.90;98760.31;144665;1262;100633;-76
2023/03/06 23:51:16;;;;;;;11.90;10.60;;;;;;;7.30;53.96;98761.01;144631;1262;103274;-77
2023/03/06 23:54:38;;;;;;;12.30;10.80;;;;;;;7.29;53.98;98759.78;144787;1266;103561;-78
2023/03/06 23:58:00;;;;;;;13.00;11.40;;;;;;;7.27;53.79;98762.52;144649;1273;95244;-83
